sensor_id;sensor_type;location;lat;lon;timestamp;temperature;humidity
45491;DHT22;31237;45.586;13.782;2023-03-03T00:02:23;6.30;82.50
45491;DHT22;31237;45.586;13.782;2023-03-03T00:04:49;6.30;82.50
45491;DHT22;31237;45.586;13.782;2023-03-03T00:07:15;6.30;82.60
45491;DHT22;31237;45.586;13.782;2023-03-03T00:09:46;6.20;82.60
45491;DHT22;31237;45.586;13.782;2023-03-03T00:12:24;6.20;82.80
45491;DHT22;31237;45.586;13.782;2023-03-03T00:14:50;6.20;82.80
45491;DHT22;31237;45.586;13.782;2023-03-03T00:17:25;6.20;82.90
45491;DHT22;31237;45.586;13.782;2023-03-03T00:19:51;6.20;83.10
45491;DHT22;31237;45.586;13.782;2023-03-03T00:22:46;6.20;83.00
45491;DHT22;31237;45.586;13.782;2023-03-03T00:25:33;6.20;83.10
45491;DHT22;31237;45.586;13.782;2023-03-03T00:28:25;6.20;83.10
45491;DHT22;31237;45.586;13.782;2023-03-03T00:30:53;6.20;83.00
45491;DHT22;31237;45.586;13.782;2023-03-03T00:33:26;6.20;83.10
45491;DHT22;31237;45.586;13.782;2023-03-03T00:35:54;6.20;83.10
45491;DHT22;31237;45.586;13.782;2023-03-03T00:38:19;6.20;83.20
45491;DHT22;31237;45.586;13.782;2023-03-03T00:40:46;6.20;83.20
45491;DHT22;31237;45.586;13.782;2023-03-03T00:43:23;6.20;83.10
45491;DHT22;31237;45.586;13.782;2023-03-03T00:45:51;6.20;83.10
45491;DHT22;31237;45.586;13.782;2023-03-03T00:50:59;6.10;83.10
45491;DHT22;31237;45.586;13.782;2023-03-03T00:53:27;6.10;83.10
45491;DHT22;31237;45.586;13.782;2023-03-03T00:55:54;6.10;83.10
45491;DHT22;31237;45.586;13.782;2023-03-03T00:58:21;6.10;83.50
45491;DHT22;31237;45.586;13.782;2023-03-03T01:00:52;6.10;83.40
45491;DHT22;31237;45.586;13.782;2023-03-03T01:03:21;6.10;83.30
45491;DHT22;31237;45.586;13.782;2023-03-03T01:05:47;6.10;83.30
45491;DHT22;31237;45.586;13.782;2023-03-03T01:08:14;6.00;83.30
45491;DHT22;31237;45.586;13.782;2023-03-03T01:10:51;6.00;83.30
45491;DHT22;31237;45.586;13.782;2023-03-03T01:13:19;6.00;83.40
45491;DHT22;31237;45.586;13.782;2023-03-03T01:15:46;6.00;83.50
45491;DHT22;31237;45.586;13.782;2023-03-03T01:18:12;6.10;83.50
45491;DHT22;31237;45.586;13.782;2023-03-03T01:20:38;6.10;83.60
45491;DHT22;31237;45.586;13.782;2023-03-03T01:23:04;6.10;83.60
45491;DHT22;31237;45.586;13.782;2023-03-03T01:25:30;6.10;83.60
45491;DHT22;31237;45.586;13.782;2023-03-03T01:27:56;6.10;83.60
45491;DHT22;31237;45.586;13.782;2023-03-03T01:30:22;6.10;83.50
45491;DHT22;31237;45.586;13.782;2023-03-03T01:32:48;6.10;83.50
45491;DHT22;31237;45.586;13.782;2023-03-03T01:35:14;6.10;83.40
45491;DHT22;31237;45.586;13.782;2023-03-03T01:37:39;6.20;83.50
45491;DHT22;31237;45.586;13.782;2023-03-03T01:40:10;6.20;83.40
45491;DHT22;31237;45.586;13.782;2023-03-03T01:42:36;6.20;83.30
45491;DHT22;31237;45.586;13.782;2023-03-03T01:56:06;6.20;83.30
45491;DHT22;31237;45.586;13.782;2023-03-03T01:58:40;6.20;83.20
45491;DHT22;31237;45.586;13.782;2023-03-03T02:01:10;6.20;83.30
45491;DHT22;31237;45.586;13.782;2023-03-03T02:03:38;6.20;83.30
45491;DHT22;31237;45.586;13.782;2023-03-03T02:06:07;6.30;83.30
45491;DHT22;31237;45.586;13.782;2023-03-03T02:11:21;6.30;83.20
45491;DHT22;31237;45.586;13.782;2023-03-03T02:13:47;6.30;83.20
45491;DHT22;31237;45.586;13.782;2023-03-03T02:16:13;6.30;83.10
45491;DHT22;31237;45.586;13.782;2023-03-03T02:18:39;6.30;83.10
45491;DHT22;31237;45.586;13.782;2023-03-03T02:26:39;6.30;83.40
45491;DHT22;31237;45.586;13.782;2023-03-03T02:29:06;6.30;83.40
45491;DHT22;31237;45.586;13.782;2023-03-03T02:31:32;6.30;83.30
45491;DHT22;31237;45.586;13.782;2023-03-03T02:33:58;6.30;83.30
45491;DHT22;31237;45.586;13.782;2023-03-03T02:36:30;6.30;83.90
45491;DHT22;31237;45.586;13.782;2023-03-03T02:44:23;6.30;83.40
45491;DHT22;31237;45.586;13.782;2023-03-03T02:46:51;6.30;83.50
45491;DHT22;31237;45.586;13.782;2023-03-03T02:49:24;6.30;83.50
45491;DHT22;31237;45.586;13.782;2023-03-03T02:51:50;6.30;83.50
45491;DHT22;31237;45.586;13.782;2023-03-03T02:54:19;6.30;83.60
45491;DHT22;31237;45.586;13.782;2023-03-03T02:56:46;6.30;83.50
45491;DHT22;31237;45.586;13.782;2023-03-03T02:59:11;6.20;83.50
45491;DHT22;31237;45.586;13.782;2023-03-03T03:01:38;6.20;83.60
45491;DHT22;31237;45.586;13.782;2023-03-03T03:06:37;6.20;83.90
45491;DHT22;31237;45.586;13.782;2023-03-03T03:09:04;6.20;84.00
45491;DHT22;31237;45.586;13.782;2023-03-03T03:11:30;6.20;83.80
45491;DHT22;31237;45.586;13.782;2023-03-03T03:13:56;6.20;83.80
45491;DHT22;31237;45.586;13.782;2023-03-03T03:16:22;6.20;83.80
45491;DHT22;31237;45.586;13.782;2023-03-03T03:18:48;6.20;83.80
45491;DHT22;31237;45.586;13.782;2023-03-03T03:21:15;6.10;83.90
45491;DHT22;31237;45.586;13.782;2023-03-03T03:23:41;6.10;84.00
45491;DHT22;31237;45.586;13.782;2023-03-03T03:26:08;6.10;84.00
45491;DHT22;31237;45.586;13.782;2023-03-03T03:28:34;6.10;84.00
45491;DHT22;31237;45.586;13.782;2023-03-03T03:30:59;6.10;84.00
45491;DHT22;31237;45.586;13.782;2023-03-03T03:33:25;6.00;84.00
45491;DHT22;31237;45.586;13.782;2023-03-03T03:35:53;6.00;84.20
45491;DHT22;31237;45.586;13.782;2023-03-03T03:38:20;6.00;84.30
45491;DHT22;31237;45.586;13.782;2023-03-03T03:40:46;6.00;84.30
45491;DHT22;31237;45.586;13.782;2023-03-03T03:43:12;6.00;84.40
45491;DHT22;31237;45.586;13.782;2023-03-03T03:45:38;5.90;84.40
45491;DHT22;31237;45.586;13.782;2023-03-03T03:48:04;5.90;84.40
45491;DHT22;31237;45.586;13.782;2023-03-03T03:50:29;5.90;84.40
45491;DHT22;31237;45.586;13.782;2023-03-03T03:52:55;5.80;84.40
45491;DHT22;31237;45.586;13.782;2023-03-03T03:55:21;5.80;84.30
45491;DHT22;31237;45.586;13.782;2023-03-03T03:57:47;5.80;84.40
45491;DHT22;31237;45.586;13.782;2023-03-03T04:00:13;5.70;84.50
45491;DHT22;31237;45.586;13.782;2023-03-03T04:02:39;5.70;84.80
45491;DHT22;31237;45.586;13.782;2023-03-03T04:05:05;5.60;84.80
45491;DHT22;31237;45.586;13.782;2023-03-03T04:07:31;5.60;84.90
45491;DHT22;31237;45.586;13.782;2023-03-03T04:09:57;5.60;85.10
45491;DHT22;31237;45.586;13.782;2023-03-03T04:12:23;5.60;85.20
45491;DHT22;31237;45.586;13.782;2023-03-03T04:14:48;5.50;85.00
45491;DHT22;31237;45.586;13.782;2023-03-03T04:17:19;5.50;85.80
45491;DHT22;31237;45.586;13.782;2023-03-03T04:19:45;5.50;85.20
45491;DHT22;31237;45.586;13.782;2023-03-03T04:22:11;5.50;85.20
45491;DHT22;31237;45.586;13.782;2023-03-03T04:24:38;5.40;85.40
45491;DHT22;31237;45.586;13.782;2023-03-03T04:27:04;5.50;85.50
45491;DHT22;31237;45.586;13.782;2023-03-03T04:29:29;5.40;85.40
45491;DHT22;31237;45.586;13.782;2023-03-03T04:31:55;5.40;85.40
45491;DHT22;31237;45.586;13.782;2023-03-03T04:34:21;5.40;85.50
45491;DHT22;31237;45.586;13.782;2023-03-03T04:36:47;5.40;85.50
45491;DHT22;31237;45.586;13.782;2023-03-03T04:39:12;5.40;85.60
45491;DHT22;31237;45.586;13.782;2023-03-03T04:41:38;5.40;85.80
45491;DHT22;31237;45.586;13.782;2023-03-03T04:44:04;5.40;85.90
45491;DHT22;31237;45.586;13.782;2023-03-03T04:46:30;5.40;86.00
45491;DHT22;31237;45.586;13.782;2023-03-03T04:48:55;5.40;86.10
45491;DHT22;31237;45.586;13.782;2023-03-03T04:51:21;5.40;85.90
45491;DHT22;31237;45.586;13.782;2023-03-03T04:53:47;5.30;85.90
45491;DHT22;31237;45.586;13.782;2023-03-03T04:56:14;5.30;86.00
45491;DHT22;31237;45.586;13.782;2023-03-03T04:58:40;5.40;86.20
45491;DHT22;31237;45.586;13.782;2023-03-03T05:01:05;5.30;86.20
45491;DHT22;31237;45.586;13.782;2023-03-03T05:03:31;5.30;86.20
45491;DHT22;31237;45.586;13.782;2023-03-03T05:05:57;5.30;86.20
45491;DHT22;31237;45.586;13.782;2023-03-03T05:08:23;5.30;86.40
45491;DHT22;31237;45.586;13.782;2023-03-03T05:10:53;5.30;86.40
45491;DHT22;31237;45.586;13.782;2023-03-03T05:13:19;5.40;86.70
45491;DHT22;31237;45.586;13.782;2023-03-03T05:15:52;5.40;86.70
45491;DHT22;31237;45.586;13.782;2023-03-03T05:18:23;5.40;86.60
45491;DHT22;31237;45.586;13.782;2023-03-03T05:20:50;5.40;86.60
45491;DHT22;31237;45.586;13.782;2023-03-03T05:23:17;5.40;86.60
45491;DHT22;31237;45.586;13.782;2023-03-03T05:25:42;5.50;86.70
45491;DHT22;31237;45.586;13.782;2023-03-03T05:28:09;5.50;86.80
45491;DHT22;31237;45.586;13.782;2023-03-03T05:30:36;5.50;86.80
45491;DHT22;31237;45.586;13.782;2023-03-03T05:33:02;5.50;86.80
45491;DHT22;31237;45.586;13.782;2023-03-03T05:35:28;5.60;87.00
45491;DHT22;31237;45.586;13.782;2023-03-03T05:37:54;5.60;87.00
45491;DHT22;31237;45.586;13.782;2023-03-03T05:40:20;5.70;86.90
45491;DHT22;31237;45.586;13.782;2023-03-03T05:42:46;5.70;86.90
45491;DHT22;31237;45.586;13.782;2023-03-03T05:45:12;5.70;86.80
45491;DHT22;31237;45.586;13.782;2023-03-03T05:47:37;5.80;87.00
45491;DHT22;31237;45.586;13.782;2023-03-03T05:50:04;5.80;87.00
45491;DHT22;31237;45.586;13.782;2023-03-03T05:52:30;5.90;87.20
45491;DHT22;31237;45.586;13.782;2023-03-03T05:54:56;6.00;86.90
45491;DHT22;31237;45.586;13.782;2023-03-03T05:57:22;6.00;86.90
45491;DHT22;31237;45.586;13.782;2023-03-03T05:59:48;6.10;86.80
45491;DHT22;31237;45.586;13.782;2023-03-03T06:02:13;6.10;86.60
45491;DHT22;31237;45.586;13.782;2023-03-03T06:04:39;6.20;86.70
45491;DHT22;31237;45.586;13.782;2023-03-03T06:07:05;6.20;86.50
45491;DHT22;31237;45.586;13.782;2023-03-03T06:09:31;6.30;86.40
45491;DHT22;31237;45.586;13.782;2023-03-03T06:11:57;6.30;86.30
45491;DHT22;31237;45.586;13.782;2023-03-03T06:14:24;6.40;86.20
45491;DHT22;31237;45.586;13.782;2023-03-03T06:16:49;6.40;86.10
45491;DHT22;31237;45.586;13.782;2023-03-03T06:19:15;6.50;86.00
45491;DHT22;31237;45.586;13.782;2023-03-03T06:21:41;6.60;85.90
45491;DHT22;31237;45.586;13.782;2023-03-03T06:24:08;6.60;85.80
45491;DHT22;31237;45.586;13.782;2023-03-03T06:26:34;6.60;85.60
45491;DHT22;31237;45.586;13.782;2023-03-03T06:29:00;6.70;85.60
45491;DHT22;31237;45.586;13.782;2023-03-03T06:31:26;6.70;85.50
45491;DHT22;31237;45.586;13.782;2023-03-03T06:33:53;6.80;85.50
45491;DHT22;31237;45.586;13.782;2023-03-03T06:36:19;6.90;85.30
45491;DHT22;31237;45.586;13.782;2023-03-03T06:38:45;6.90;85.30
45491;DHT22;31237;45.586;13.782;2023-03-03T06:41:11;7.00;85.20
45491;DHT22;31237;45.586;13.782;2023-03-03T06:43:37;7.00;85.00
45491;DHT22;31237;45.586;13.782;2023-03-03T06:46:04;7.20;84.80
45491;DHT22;31237;45.586;13.782;2023-03-03T06:48:31;7.20;84.50
45491;DHT22;31237;45.586;13.782;2023-03-03T06:50:59;7.30;84.30
45491;DHT22;31237;45.586;13.782;2023-03-03T06:53:26;7.30;84.10
45491;DHT22;31237;45.586;13.782;2023-03-03T06:55:53;7.40;84.00
45491;DHT22;31237;45.586;13.782;2023-03-03T06:58:20;7.50;84.00
45491;DHT22;31237;45.586;13.782;2023-03-03T07:00:54;7.60;83.70
45491;DHT22;31237;45.586;13.782;2023-03-03T07:03:30;7.60;83.70
45491;DHT22;31237;45.586;13.782;2023-03-03T07:05:57;7.60;83.20
45491;DHT22;31237;45.586;13.782;2023-03-03T07:08:24;7.70;83.00
45491;DHT22;31237;45.586;13.782;2023-03-03T07:10:50;7.70;82.90
45491;DHT22;31237;45.586;13.782;2023-03-03T07:13:25;7.70;82.60
45491;DHT22;31237;45.586;13.782;2023-03-03T07:16:00;7.80;82.30
45491;DHT22;31237;45.586;13.782;2023-03-03T07:18:33;7.80;82.20
45491;DHT22;31237;45.586;13.782;2023-03-03T07:27:18;8.10;81.50
45491;DHT22;31237;45.586;13.782;2023-03-03T07:29:40;8.20;81.50
45491;DHT22;31237;45.586;13.782;2023-03-03T07:32:24;8.30;81.10
45491;DHT22;31237;45.586;13.782;2023-03-03T07:34:53;8.40;80.00
45491;DHT22;31237;45.586;13.782;2023-03-03T07:39:55;8.60;79.90
45491;DHT22;31237;45.586;13.782;2023-03-03T07:42:37;8.60;79.20
45491;DHT22;31237;45.586;13.782;2023-03-03T07:45:29;8.70;79.10
45491;DHT22;31237;45.586;13.782;2023-03-03T07:48:05;8.80;78.80
45491;DHT22;31237;45.586;13.782;2023-03-03T07:50:34;8.80;78.90
45491;DHT22;31237;45.586;13.782;2023-03-03T07:53:00;8.90;78.70
45491;DHT22;31237;45.586;13.782;2023-03-03T07:55:33;8.90;78.40
45491;DHT22;31237;45.586;13.782;2023-03-03T08:03:44;9.00;77.80
45491;DHT22;31237;45.586;13.782;2023-03-03T08:14:29;9.10;77.50
45491;DHT22;31237;45.586;13.782;2023-03-03T08:16:56;9.10;76.60
45491;DHT22;31237;45.586;13.782;2023-03-03T08:19:23;9.10;76.60
45491;DHT22;31237;45.586;13.782;2023-03-03T08:21:49;9.10;76.80
45491;DHT22;31237;45.586;13.782;2023-03-03T08:24:15;9.10;76.70
45491;DHT22;31237;45.586;13.782;2023-03-03T08:26:41;9.10;76.90
45491;DHT22;31237;45.586;13.782;2023-03-03T08:29:07;9.10;76.80
45491;DHT22;31237;45.586;13.782;2023-03-03T08:31:32;9.20;76.70
45491;DHT22;31237;45.586;13.782;2023-03-03T08:33:58;9.20;76.40
45491;DHT22;31237;45.586;13.782;2023-03-03T08:36:24;9.20;76.40
45491;DHT22;31237;45.586;13.782;2023-03-03T08:38:50;9.20;76.30
45491;DHT22;31237;45.586;13.782;2023-03-03T08:41:16;9.30;76.20
45491;DHT22;31237;45.586;13.782;2023-03-03T08:43:41;9.30;76.00
45491;DHT22;31237;45.586;13.782;2023-03-03T08:46:10;9.40;75.80
45491;DHT22;31237;45.586;13.782;2023-03-03T08:48:36;9.40;75.70
45491;DHT22;31237;45.586;13.782;2023-03-03T08:51:02;9.40;75.70
45491;DHT22;31237;45.586;13.782;2023-03-03T08:53:28;9.40;75.60
45491;DHT22;31237;45.586;13.782;2023-03-03T08:55:54;9.40;75.40
45491;DHT22;31237;45.586;13.782;2023-03-03T08:58:21;9.50;75.50
45491;DHT22;31237;45.586;13.782;2023-03-03T09:00:47;9.50;75.60
45491;DHT22;31237;45.586;13.782;2023-03-03T09:03:13;9.50;75.50
45491;DHT22;31237;45.586;13.782;2023-03-03T09:05:39;9.50;75.40
45491;DHT22;31237;45.586;13.782;2023-03-03T09:08:06;9.60;75.10
45491;DHT22;31237;45.586;13.782;2023-03-03T09:10:32;9.60;75.00
45491;DHT22;31237;45.586;13.782;2023-03-03T09:13:03;9.60;75.10
45491;DHT22;31237;45.586;13.782;2023-03-03T09:15:33;9.70;75.00
45491;DHT22;31237;45.586;13.782;2023-03-03T09:20:50;9.70;74.80
45491;DHT22;31237;45.586;13.782;2023-03-03T09:23:26;9.70;74.70
45491;DHT22;31237;45.586;13.782;2023-03-03T09:25:52;9.70;74.60
45491;DHT22;31237;45.586;13.782;2023-03-03T09:28:30;9.80;74.70
45491;DHT22;31237;45.586;13.782;2023-03-03T09:30:58;9.80;74.80
45491;DHT22;31237;45.586;13.782;2023-03-03T09:33:44;9.90;74.70
45491;DHT22;31237;45.586;13.782;2023-03-03T09:38:49;10.00;73.60
45491;DHT22;31237;45.586;13.782;2023-03-03T09:41:37;10.00;73.20
45491;DHT22;31237;45.586;13.782;2023-03-03T09:49:31;10.10;72.50
45491;DHT22;31237;45.586;13.782;2023-03-03T09:57:24;10.40;71.00
45491;DHT22;31237;45.586;13.782;2023-03-03T10:05:30;10.70;70.10
45491;DHT22;31237;45.586;13.782;2023-03-03T10:13:32;10.80;69.00
45491;DHT22;31237;45.586;13.782;2023-03-03T10:24:28;10.90;68.60
45491;DHT22;31237;45.586;13.782;2023-03-03T10:38:25;11.00;68.40
45491;DHT22;31237;45.586;13.782;2023-03-03T10:52:46;11.40;67.50
45491;DHT22;31237;45.586;13.782;2023-03-03T10:55:45;11.40;67.10
45491;DHT22;31237;45.586;13.782;2023-03-03T11:06:28;11.30;67.00
45491;DHT22;31237;45.586;13.782;2023-03-03T11:09:02;11.30;67.30
45491;DHT22;31237;45.586;13.782;2023-03-03T11:11:59;11.30;67.40
45491;DHT22;31237;45.586;13.782;2023-03-03T11:14:32;11.30;67.60
45491;DHT22;31237;45.586;13.782;2023-03-03T11:22:38;11.40;66.70
45491;DHT22;31237;45.586;13.782;2023-03-03T11:25:29;11.40;67.00
45491;DHT22;31237;45.586;13.782;2023-03-03T11:33:39;11.60;66.90
45491;DHT22;31237;45.586;13.782;2023-03-03T11:38:58;11.90;65.40
45491;DHT22;31237;45.586;13.782;2023-03-03T11:44:39;12.10;65.40
45491;DHT22;31237;45.586;13.782;2023-03-03T11:49:45;12.50;65.00
45491;DHT22;31237;45.586;13.782;2023-03-03T11:52:51;12.60;64.60
45491;DHT22;31237;45.586;13.782;2023-03-03T11:55:30;12.70;63.70
45491;DHT22;31237;45.586;13.782;2023-03-03T12:00:51;12.80;63.20
45491;DHT22;31237;45.586;13.782;2023-03-03T12:03:42;12.80;63.30
45491;DHT22;31237;45.586;13.782;2023-03-03T12:17:40;12.80;62.80
45491;DHT22;31237;45.586;13.782;2023-03-03T12:20:29;12.90;62.70
45491;DHT22;31237;45.586;13.782;2023-03-03T12:23:54;13.00;62.80
45491;DHT22;31237;45.586;13.782;2023-03-03T12:26:24;13.10;62.40
45491;DHT22;31237;45.586;13.782;2023-03-03T12:29:04;13.20;62.40
45491;DHT22;31237;45.586;13.782;2023-03-03T12:31:44;13.20;61.50
45491;DHT22;31237;45.586;13.782;2023-03-03T12:34:50;13.10;59.40
45491;DHT22;31237;45.586;13.782;2023-03-03T12:38:10;13.00;60.00
45491;DHT22;31237;45.586;13.782;2023-03-03T12:40:31;12.90;61.00
45491;DHT22;31237;45.586;13.782;2023-03-03T12:48:42;12.80;61.40
45491;DHT22;31237;45.586;13.782;2023-03-03T13:07:46;12.60;60.80
45491;DHT22;31237;45.586;13.782;2023-03-03T13:10:38;12.60;60.80
45491;DHT22;31237;45.586;13.782;2023-03-03T13:13:15;12.60;61.40
45491;DHT22;31237;45.586;13.782;2023-03-03T13:16:12;12.60;61.10
45491;DHT22;31237;45.586;13.782;2023-03-03T13:18:50;12.60;60.90
45491;DHT22;31237;45.586;13.782;2023-03-03T13:21:35;12.60;61.50
45491;DHT22;31237;45.586;13.782;2023-03-03T13:27:00;12.60;61.50
45491;DHT22;31237;45.586;13.782;2023-03-03T13:37:02;12.20;62.30
45491;DHT22;31237;45.586;13.782;2023-03-03T13:39:32;12.20;62.30
45491;DHT22;31237;45.586;13.782;2023-03-03T13:44:44;12.10;62.50
45491;DHT22;31237;45.586;13.782;2023-03-03T13:47:47;12.00;62.30
45491;DHT22;31237;45.586;13.782;2023-03-03T13:53:10;11.90;62.60
45491;DHT22;31237;45.586;13.782;2023-03-03T13:55:42;11.80;63.30
45491;DHT22;31237;45.586;13.782;2023-03-03T13:58:23;11.90;63.50
45491;DHT22;31237;45.586;13.782;2023-03-03T14:00:56;11.90;63.40
45491;DHT22;31237;45.586;13.782;2023-03-03T14:03:45;12.00;63.60
45491;DHT22;31237;45.586;13.782;2023-03-03T14:06:17;12.00;63.40
45491;DHT22;31237;45.586;13.782;2023-03-03T14:11:34;12.00;62.80
45491;DHT22;31237;45.586;13.782;2023-03-03T14:15:15;11.90;62.90
45491;DHT22;31237;45.586;13.782;2023-03-03T14:17:34;11.80;63.10
45491;DHT22;31237;45.586;13.782;2023-03-03T14:20:38;11.80;63.20
45491;DHT22;31237;45.586;13.782;2023-03-03T14:28:16;11.80;62.90
45491;DHT22;31237;45.586;13.782;2023-03-03T14:30:43;11.80;62.50
45491;DHT22;31237;45.586;13.782;2023-03-03T14:36:02;11.60;62.80
45491;DHT22;31237;45.586;13.782;2023-03-03T14:41:15;11.50;63.80
45491;DHT22;31237;45.586;13.782;2023-03-03T14:43:43;11.50;63.70
45491;DHT22;31237;45.586;13.782;2023-03-03T14:48:53;11.40;63.40
45491;DHT22;31237;45.586;13.782;2023-03-03T14:51:26;11.40;63.70
45491;DHT22;31237;45.586;13.782;2023-03-03T14:53:54;11.30;64.10
45491;DHT22;31237;45.586;13.782;2023-03-03T14:56:32;11.20;64.30
45491;DHT22;31237;45.586;13.782;2023-03-03T15:01:39;11.10;64.70
45491;DHT22;31237;45.586;13.782;2023-03-03T15:04:26;11.10;65.50
45491;DHT22;31237;45.586;13.782;2023-03-03T15:06:53;11.10;64.90
45491;DHT22;31237;45.586;13.782;2023-03-03T15:12:01;11.20;65.10
45491;DHT22;31237;45.586;13.782;2023-03-03T15:14:38;11.10;65.00
45491;DHT22;31237;45.586;13.782;2023-03-03T15:34:20;11.20;64.60
45491;DHT22;31237;45.586;13.782;2023-03-03T15:36:39;11.20;64.50
45491;DHT22;31237;45.586;13.782;2023-03-03T15:39:22;11.10;64.60
45491;DHT22;31237;45.586;13.782;2023-03-03T15:42:10;11.10;64.30
45491;DHT22;31237;45.586;13.782;2023-03-03T15:50:19;10.90;64.30
45491;DHT22;31237;45.586;13.782;2023-03-03T16:03:50;10.40;65.60
45491;DHT22;31237;45.586;13.782;2023-03-03T16:06:23;10.30;65.70
45491;DHT22;31237;45.586;13.782;2023-03-03T16:12:04;10.20;65.60
45491;DHT22;31237;45.586;13.782;2023-03-03T16:19:59;10.10;65.90
45491;DHT22;31237;45.586;13.782;2023-03-03T16:31:02;9.70;66.70
45491;DHT22;31237;45.586;13.782;2023-03-03T16:34:00;9.70;66.70
45491;DHT22;31237;45.586;13.782;2023-03-03T16:39:35;9.50;67.20
45491;DHT22;31237;45.586;13.782;2023-03-03T16:55:58;9.10;68.30
45491;DHT22;31237;45.586;13.782;2023-03-03T16:59:03;9.10;68.50
45491;DHT22;31237;45.586;13.782;2023-03-03T17:02:00;9.00;68.70
45491;DHT22;31237;45.586;13.782;2023-03-03T17:04:48;8.90;68.80
45491;DHT22;31237;45.586;13.782;2023-03-03T17:20:38;8.70;70.30
45491;DHT22;31237;45.586;13.782;2023-03-03T17:25:55;8.60;70.60
45491;DHT22;31237;45.586;13.782;2023-03-03T17:42:15;8.40;70.90
45491;DHT22;31237;45.586;13.782;2023-03-03T18:01:33;8.10;71.40
45491;DHT22;31237;45.586;13.782;2023-03-03T18:04:28;8.10;71.50
45491;DHT22;31237;45.586;13.782;2023-03-03T18:07:24;8.00;71.50
45491;DHT22;31237;45.586;13.782;2023-03-03T18:12:41;7.90;71.60
45491;DHT22;31237;45.586;13.782;2023-03-03T18:19:26;7.90;71.80
45491;DHT22;31237;45.586;13.782;2023-03-03T18:23:51;7.70;71.90
45491;DHT22;31237;45.586;13.782;2023-03-03T18:26:41;7.70;72.20
45491;DHT22;31237;45.586;13.782;2023-03-03T18:31:46;7.80;72.30
45491;DHT22;31237;45.586;13.782;2023-03-03T18:34:26;7.70;72.40
45491;DHT22;31237;45.586;13.782;2023-03-03T18:37:03;7.70;72.60
45491;DHT22;31237;45.586;13.782;2023-03-03T18:39:49;7.70;72.70
45491;DHT22;31237;45.586;13.782;2023-03-03T18:42:38;7.80;72.80
45491;DHT22;31237;45.586;13.782;2023-03-03T18:50:44;7.70;72.90
45491;DHT22;31237;45.586;13.782;2023-03-03T18:53:33;7.70;73.00
45491;DHT22;31237;45.586;13.782;2023-03-03T18:56:01;7.70;73.40
45491;DHT22;31237;45.586;13.782;2023-03-03T19:06:54;7.70;74.10
45491;DHT22;31237;45.586;13.782;2023-03-03T19:09:20;7.60;74.90
45491;DHT22;31237;45.586;13.782;2023-03-03T19:12:08;7.60;74.50
45491;DHT22;31237;45.586;13.782;2023-03-03T19:14:38;7.60;74.80
45491;DHT22;31237;45.586;13.782;2023-03-03T19:22:29;7.60;75.10
45491;DHT22;31237;45.586;13.782;2023-03-03T19:25:25;7.50;75.10
45491;DHT22;31237;45.586;13.782;2023-03-03T19:33:39;7.50;75.70
45491;DHT22;31237;45.586;13.782;2023-03-03T19:49:33;7.50;76.20
45491;DHT22;31237;45.586;13.782;2023-03-03T20:17:24;7.50;75.40
45491;DHT22;31237;45.586;13.782;2023-03-03T20:37:13;7.30;75.10
45491;DHT22;31237;45.586;13.782;2023-03-03T20:40:10;7.30;75.00
45491;DHT22;31237;45.586;13.782;2023-03-03T20:53:42;7.30;74.10
45491;DHT22;31237;45.586;13.782;2023-03-03T21:01:28;7.40;72.80
45491;DHT22;31237;45.586;13.782;2023-03-03T21:04:19;7.40;72.60
45491;DHT22;31237;45.586;13.782;2023-03-03T21:06:45;7.50;72.40
45491;DHT22;31237;45.586;13.782;2023-03-03T21:09:41;7.40;72.20
45491;DHT22;31237;45.586;13.782;2023-03-03T21:12:29;7.50;71.70
45491;DHT22;31237;45.586;13.782;2023-03-03T21:15:23;7.50;71.50
45491;DHT22;31237;45.586;13.782;2023-03-03T21:17:49;7.50;71.40
45491;DHT22;31237;45.586;13.782;2023-03-03T21:22:54;7.50;71.30
45491;DHT22;31237;45.586;13.782;2023-03-03T21:28:27;7.50;71.10
45491;DHT22;31237;45.586;13.782;2023-03-03T21:31:09;7.40;71.30
45491;DHT22;31237;45.586;13.782;2023-03-03T21:38:48;7.30;71.80
45491;DHT22;31237;45.586;13.782;2023-03-03T21:41:15;7.20;72.00
45491;DHT22;31237;45.586;13.782;2023-03-03T21:43:59;7.20;72.30
45491;DHT22;31237;45.586;13.782;2023-03-03T21:46:25;7.20;72.60
45491;DHT22;31237;45.586;13.782;2023-03-03T21:48:51;7.10;72.80
45491;DHT22;31237;45.586;13.782;2023-03-03T21:51:17;7.10;73.00
45491;DHT22;31237;45.586;13.782;2023-03-03T21:53:44;7.00;73.20
45491;DHT22;31237;45.586;13.782;2023-03-03T21:56:11;7.00;73.70
45491;DHT22;31237;45.586;13.782;2023-03-03T21:58:39;7.00;73.90
45491;DHT22;31237;45.586;13.782;2023-03-03T22:01:05;7.00;74.00
45491;DHT22;31237;45.586;13.782;2023-03-03T22:03:32;7.00;74.80
45491;DHT22;31237;45.586;13.782;2023-03-03T22:05:59;7.10;74.30
45491;DHT22;31237;45.586;13.782;2023-03-03T22:08:25;7.10;74.30
45491;DHT22;31237;45.586;13.782;2023-03-03T22:10:52;7.10;74.30
45491;DHT22;31237;45.586;13.782;2023-03-03T22:13:24;7.00;74.30
45491;DHT22;31237;45.586;13.782;2023-03-03T22:15:51;7.00;74.30
45491;DHT22;31237;45.586;13.782;2023-03-03T22:18:18;7.10;74.30
45491;DHT22;31237;45.586;13.782;2023-03-03T22:20:45;7.10;74.10
45491;DHT22;31237;45.586;13.782;2023-03-03T22:23:12;7.10;74.10
45491;DHT22;31237;45.586;13.782;2023-03-03T22:25:38;7.10;74.10
45491;DHT22;31237;45.586;13.782;2023-03-03T22:28:04;7.00;74.10
45491;DHT22;31237;45.586;13.782;2023-03-03T22:30:30;7.00;74.10
45491;DHT22;31237;45.586;13.782;2023-03-03T22:32:56;7.00;74.20
45491;DHT22;31237;45.586;13.782;2023-03-03T22:35:21;7.00;74.20
45491;DHT22;31237;45.586;13.782;2023-03-03T22:37:47;6.90;74.20
45491;DHT22;31237;45.586;13.782;2023-03-03T22:40:13;6.90;74.20
45491;DHT22;31237;45.586;13.782;2023-03-03T22:42:39;6.90;74.30
45491;DHT22;31237;45.586;13.782;2023-03-03T22:45:05;6.80;74.40
45491;DHT22;31237;45.586;13.782;2023-03-03T22:47:31;6.80;74.50
45491;DHT22;31237;45.586;13.782;2023-03-03T22:49:58;6.70;74.40
45491;DHT22;31237;45.586;13.782;2023-03-03T22:52:23;6.70;74.40
45491;DHT22;31237;45.586;13.782;2023-03-03T22:54:49;6.70;74.60
45491;DHT22;31237;45.586;13.782;2023-03-03T22:57:15;6.70;74.80
45491;DHT22;31237;45.586;13.782;2023-03-03T22:59:41;6.60;74.80
45491;DHT22;31237;45.586;13.782;2023-03-03T23:02:06;6.60;74.90
45491;DHT22;31237;45.586;13.782;2023-03-03T23:04:32;6.50;75.00
45491;DHT22;31237;45.586;13.782;2023-03-03T23:06:59;6.50;75.10
45491;DHT22;31237;45.586;13.782;2023-03-03T23:09:25;6.50;75.20
45491;DHT22;31237;45.586;13.782;2023-03-03T23:11:51;6.50;75.20
45491;DHT22;31237;45.586;13.782;2023-03-03T23:14:17;6.50;75.20
45491;DHT22;31237;45.586;13.782;2023-03-03T23:16:44;6.50;75.20
45491;DHT22;31237;45.586;13.782;2023-03-03T23:19:10;6.40;75.20
45491;DHT22;31237;45.586;13.782;2023-03-03T23:21:36;6.40;75.30